sensor_id;sensor_type;location;lat;lon;timestamp;pressure;altitude;pressure_sealevel;temperature;humidity
18504;BME280;9381;54.244;10.074;2023-04-25T00:02:19;99827.91;;;9.45;100.00
18504;BME280;9381;54.244;10.074;2023-04-25T00:07:19;99833.63;;;9.37;100.00
18504;BME280;9381;54.244;10.074;2023-04-25T00:12:19;99826.09;;;9.39;99.61
18504;BME280;9381;54.244;10.074;2023-04-25T00:17:20;99822.16;;;9.64;98.92
18504;BME280;9381;54.244;10.074;2023-04-25T00:22:22;99825.91;;;9.52;99.46
18504;BME280;9381;54.244;10.074;2023-04-25T00:27:22;99833.94;;;9.29;99.66
18504;BME280;9381;54.244;10.074;2023-04-25T00:32:22;99833.41;;;9.50;99.67
18504;BME280;9381;54.244;10.074;2023-04-25T00:37:22;99838.28;;;9.30;98.24
18504;BME280;9381;54.244;10.074;2023-04-25T00:42:23;99834.25;;;9.21;97.37
18504;BME280;9381;54.244;10.074;2023-04-25T00:47:25;99838.91;;;9.43;96.97
18504;BME280;9381;54.244;10.074;2023-04-25T00:52:25;99839.91;;;9.01;97.63
18504;BME280;9381;54.244;10.074;2023-04-25T00:57:26;99826.63;;;9.18;97.97
18504;BME280;9381;54.244;10.074;2023-04-25T01:02:26;99843.72;;;9.12;97.57
18504;BME280;9381;54.244;10.074;2023-04-25T01:07:27;99842.03;;;8.99;97.07
18504;BME280;9381;54.244;10.074;2023-04-25T01:12:27;99848.69;;;8.97;97.32
18504;BME280;9381;54.244;10.074;2023-04-25T01:17:28;99847.31;;;8.76;96.77
18504;BME280;9381;54.244;10.074;2023-04-25T01:22:29;99861.13;;;8.80;96.55
18504;BME280;9381;54.244;10.074;2023-04-25T01:27:29;99864.88;;;8.61;96.50
18504;BME280;9381;54.244;10.074;2023-04-25T01:32:30;99863.50;;;8.76;97.01
18504;BME280;9381;54.244;10.074;2023-04-25T01:37:42;99858.16;;;8.70;96.12
18504;BME280;9381;54.244;10.074;2023-04-25T01:42:43;99876.44;;;8.68;96.18
18504;BME280;9381;54.244;10.074;2023-04-25T01:47:44;99870.75;;;8.76;94.88
18504;BME280;9381;54.244;10.074;2023-04-25T01:52:49;99879.00;;;8.63;94.51
18504;BME280;9381;54.244;10.074;2023-04-25T01:57:49;99876.88;;;8.65;94.71
18504;BME280;9381;54.244;10.074;2023-04-25T02:02:49;99881.81;;;8.68;94.65
18504;BME280;9381;54.244;10.074;2023-04-25T02:07:50;99883.94;;;8.84;93.90
18504;BME280;9381;54.244;10.074;2023-04-25T02:12:51;99891.41;;;8.64;94.07
18504;BME280;9381;54.244;10.074;2023-04-25T02:17:51;99889.41;;;8.60;94.03
18504;BME280;9381;54.244;10.074;2023-04-25T02:22:54;99892.44;;;8.45;93.54
18504;BME280;9381;54.244;10.074;2023-04-25T02:27:54;99893.13;;;8.41;93.98
18504;BME280;9381;54.244;10.074;2023-04-25T02:32:55;99905.97;;;8.14;92.43
18504;BME280;9381;54.244;10.074;2023-04-25T02:37:55;99900.78;;;8.19;92.67
18504;BME280;9381;54.244;10.074;2023-04-25T02:42:55;99904.53;;;8.12;90.94
18504;BME280;9381;54.244;10.074;2023-04-25T02:47:55;99898.53;;;8.10;90.67
18504;BME280;9381;54.244;10.074;2023-04-25T02:52:56;99902.03;;;7.92;90.30
18504;BME280;9381;54.244;10.074;2023-04-25T02:57:56;99897.13;;;7.83;90.95
18504;BME280;9381;54.244;10.074;2023-04-25T03:02:56;99912.97;;;7.66;89.63
18504;BME280;9381;54.244;10.074;2023-04-25T03:07:57;99915.81;;;7.71;90.47
18504;BME280;9381;54.244;10.074;2023-04-25T03:12:57;99915.81;;;7.71;89.88
18504;BME280;9381;54.244;10.074;2023-04-25T03:17:57;99916.97;;;7.57;90.87
18504;BME280;9381;54.244;10.074;2023-04-25T03:22:58;99911.78;;;7.62;89.56
18504;BME280;9381;54.244;10.074;2023-04-25T03:27:58;99918.09;;;7.74;89.24
18504;BME280;9381;54.244;10.074;2023-04-25T03:32:58;99916.91;;;7.95;89.06
18504;BME280;9381;54.244;10.074;2023-04-25T03:37:59;99912.94;;;7.97;86.75
18504;BME280;9381;54.244;10.074;2023-04-25T03:42:59;99915.63;;;7.97;86.57
18504;BME280;9381;54.244;10.074;2023-04-25T03:48:00;99926.00;;;7.94;87.18
18504;BME280;9381;54.244;10.074;2023-04-25T03:53:00;99935.06;;;8.06;86.92
18504;BME280;9381;54.244;10.074;2023-04-25T03:58:00;99936.56;;;7.95;86.73
18504;BME280;9381;54.244;10.074;2023-04-25T04:03:01;99938.47;;;7.88;85.47
18504;BME280;9381;54.244;10.074;2023-04-25T04:08:01;99939.28;;;7.95;85.44
18504;BME280;9381;54.244;10.074;2023-04-25T04:13:01;99950.09;;;8.13;84.53
18504;BME280;9381;54.244;10.074;2023-04-25T04:18:02;99951.19;;;7.81;81.75
18504;BME280;9381;54.244;10.074;2023-04-25T04:23:02;99946.47;;;8.01;81.11
18504;BME280;9381;54.244;10.074;2023-04-25T04:28:03;99961.94;;;8.12;79.73
18504;BME280;9381;54.244;10.074;2023-04-25T04:33:03;99957.34;;;8.19;79.57
18504;BME280;9381;54.244;10.074;2023-04-25T04:38:04;99968.63;;;8.03;78.93
18504;BME280;9381;54.244;10.074;2023-04-25T04:43:04;99967.44;;;7.93;76.85
18504;BME280;9381;54.244;10.074;2023-04-25T04:48:07;99975.84;;;8.09;77.70
18504;BME280;9381;54.244;10.074;2023-04-25T04:53:08;99977.59;;;8.28;78.46
18504;BME280;9381;54.244;10.074;2023-04-25T04:58:09;99993.41;;;8.12;74.67
18504;BME280;9381;54.244;10.074;2023-04-25T05:03:09;99994.22;;;8.43;77.82
18504;BME280;9381;54.244;10.074;2023-04-25T05:08:09;100004.91;;;8.56;76.13
18504;BME280;9381;54.244;10.074;2023-04-25T05:13:09;100007.69;;;8.43;75.98
18504;BME280;9381;54.244;10.074;2023-04-25T05:18:10;100004.59;;;8.22;74.98
18504;BME280;9381;54.244;10.074;2023-04-25T05:23:10;100005.22;;;8.11;75.70
18504;BME280;9381;54.244;10.074;2023-04-25T05:28:12;100014.16;;;8.11;75.47
18504;BME280;9381;54.244;10.074;2023-04-25T05:33:13;100026.94;;;8.22;76.33
18504;BME280;9381;54.244;10.074;2023-04-25T05:38:13;100027.97;;;8.21;76.47
18504;BME280;9381;54.244;10.074;2023-04-25T05:43:13;100023.88;;;8.12;75.79
18504;BME280;9381;54.244;10.074;2023-04-25T05:48:13;100038.34;;;8.18;74.96
18504;BME280;9381;54.244;10.074;2023-04-25T05:53:14;100031.94;;;8.19;75.27
18504;BME280;9381;54.244;10.074;2023-04-25T05:58:14;100044.09;;;8.52;76.71
18504;BME280;9381;54.244;10.074;2023-04-25T06:03:15;100052.47;;;8.44;76.00
18504;BME280;9381;54.244;10.074;2023-04-25T06:08:16;100060.44;;;8.33;76.69
18504;BME280;9381;54.244;10.074;2023-04-25T06:13:16;100053.94;;;8.40;77.12
18504;BME280;9381;54.244;10.074;2023-04-25T06:18:16;100055.53;;;8.23;78.87
18504;BME280;9381;54.244;10.074;2023-04-25T06:23:17;100056.78;;;8.14;78.46
18504;BME280;9381;54.244;10.074;2023-04-25T06:28:18;100052.13;;;8.34;78.41
18504;BME280;9381;54.244;10.074;2023-04-25T06:33:19;100050.91;;;8.79;77.82
18504;BME280;9381;54.244;10.074;2023-04-25T06:38:20;100052.75;;;8.85;77.15
18504;BME280;9381;54.244;10.074;2023-04-25T06:43:20;100064.44;;;8.97;77.77
18504;BME280;9381;54.244;10.074;2023-04-25T06:48:21;100074.97;;;8.80;78.36
18504;BME280;9381;54.244;10.074;2023-04-25T06:53:21;100080.59;;;8.79;79.44
18504;BME280;9381;54.244;10.074;2023-04-25T06:58:21;100083.59;;;8.64;80.42
18504;BME280;9381;54.244;10.074;2023-04-25T07:03:22;100081.56;;;8.60;80.72
18504;BME280;9381;54.244;10.074;2023-04-25T07:08:22;100086.38;;;8.58;79.57
18504;BME280;9381;54.244;10.074;2023-04-25T07:13:22;100090.75;;;8.77;79.33
18504;BME280;9381;54.244;10.074;2023-04-25T07:18:23;100097.16;;;8.58;78.99
18504;BME280;9381;54.244;10.074;2023-04-25T07:23:23;100097.94;;;8.65;78.91
18504;BME280;9381;54.244;10.074;2023-04-25T07:28:23;100099.81;;;9.07;79.42
18504;BME280;9381;54.244;10.074;2023-04-25T07:33:23;100099.44;;;9.28;79.59
18504;BME280;9381;54.244;10.074;2023-04-25T07:38:24;100098.97;;;9.31;78.69
18504;BME280;9381;54.244;10.074;2023-04-25T07:43:24;100102.34;;;9.26;79.58
18504;BME280;9381;54.244;10.074;2023-04-25T07:48:24;100107.09;;;9.49;78.36
18504;BME280;9381;54.244;10.074;2023-04-25T07:53:25;100104.09;;;9.57;76.57
18504;BME280;9381;54.244;10.074;2023-04-25T07:58:25;100091.75;;;9.79;73.04
18504;BME280;9381;54.244;10.074;2023-04-25T08:03:25;100102.44;;;10.51;73.07
18504;BME280;9381;54.244;10.074;2023-04-25T08:08:26;100104.75;;;11.00;71.95
18504;BME280;9381;54.244;10.074;2023-04-25T08:13:26;100108.97;;;10.84;68.87
18504;BME280;9381;54.244;10.074;2023-04-25T08:18:26;100119.97;;;10.60;68.50
18504;BME280;9381;54.244;10.074;2023-04-25T08:23:27;100127.25;;;10.48;66.78
18504;BME280;9381;54.244;10.074;2023-04-25T08:28:28;100137.81;;;10.20;68.15
18504;BME280;9381;54.244;10.074;2023-04-25T08:33:28;100135.94;;;9.84;67.59
18504;BME280;9381;54.244;10.074;2023-04-25T08:38:30;100159.72;;;9.94;66.07
18504;BME280;9381;54.244;10.074;2023-04-25T08:43:30;100171.31;;;9.83;68.04
18504;BME280;9381;54.244;10.074;2023-04-25T08:48:33;100191.09;;;9.34;73.50
18504;BME280;9381;54.244;10.074;2023-04-25T08:53:36;100195.69;;;9.09;77.94
18504;BME280;9381;54.244;10.074;2023-04-25T08:58:36;100186.00;;;9.02;80.38
18504;BME280;9381;54.244;10.074;2023-04-25T09:03:37;100191.34;;;9.51;77.91
18504;BME280;9381;54.244;10.074;2023-04-25T09:08:37;100192.00;;;10.07;76.00
18504;BME280;9381;54.244;10.074;2023-04-25T09:13:40;100198.94;;;10.80;75.18
18504;BME280;9381;54.244;10.074;2023-04-25T09:18:40;100195.66;;;11.42;72.18
18504;BME280;9381;54.244;10.074;2023-04-25T09:23:44;100201.97;;;11.36;70.42
18504;BME280;9381;54.244;10.074;2023-04-25T09:28:45;100212.22;;;11.34;70.93
18504;BME280;9381;54.244;10.074;2023-04-25T09:33:47;100214.25;;;11.38;69.85
18504;BME280;9381;54.244;10.074;2023-04-25T09:38:47;100213.75;;;11.18;68.73
18504;BME280;9381;54.244;10.074;2023-04-25T09:43:48;100214.91;;;11.11;70.83
18504;BME280;9381;54.244;10.074;2023-04-25T09:48:50;100220.78;;;11.08;69.07
18504;BME280;9381;54.244;10.074;2023-04-25T09:53:50;100215.38;;;11.19;71.98
18504;BME280;9381;54.244;10.074;2023-04-25T09:58:53;100218.66;;;11.73;69.03
18504;BME280;9381;54.244;10.074;2023-04-25T10:03:56;100209.91;;;11.71;65.03
18504;BME280;9381;54.244;10.074;2023-04-25T10:08:58;100238.53;;;11.04;62.89
18504;BME280;9381;54.244;10.074;2023-04-25T10:13:59;100264.38;;;10.41;72.71
18504;BME280;9381;54.244;10.074;2023-04-25T10:19:00;100269.31;;;10.08;73.65
18504;BME280;9381;54.244;10.074;2023-04-25T10:24:01;100268.50;;;11.32;71.64
18504;BME280;9381;54.244;10.074;2023-04-25T10:29:03;100300.84;;;10.68;69.56
18504;BME280;9381;54.244;10.074;2023-04-25T10:34:04;100292.00;;;10.07;76.05
18504;BME280;9381;54.244;10.074;2023-04-25T10:39:06;100289.31;;;9.58;77.58
18504;BME280;9381;54.244;10.074;2023-04-25T10:44:09;100270.63;;;9.99;77.80
18504;BME280;9381;54.244;10.074;2023-04-25T10:49:10;100270.53;;;10.48;76.54
18504;BME280;9381;54.244;10.074;2023-04-25T10:54:11;100275.16;;;11.81;71.69
18504;BME280;9381;54.244;10.074;2023-04-25T10:59:13;100264.63;;;13.10;68.47
18504;BME280;9381;54.244;10.074;2023-04-25T11:04:20;100269.41;;;14.18;66.38
18504;BME280;9381;54.244;10.074;2023-04-25T11:09:23;100274.13;;;14.06;60.93
18504;BME280;9381;54.244;10.074;2023-04-25T11:14:26;100306.97;;;13.22;59.54
18504;BME280;9381;54.244;10.074;2023-04-25T11:19:27;100304.16;;;12.04;66.77
18504;BME280;9381;54.244;10.074;2023-04-25T11:24:29;100302.06;;;11.94;66.23
18504;BME280;9381;54.244;10.074;2023-04-25T11:29:31;100315.22;;;12.25;63.33
18504;BME280;9381;54.244;10.074;2023-04-25T11:34:33;100300.25;;;12.85;60.51
18504;BME280;9381;54.244;10.074;2023-04-25T11:39:34;100308.78;;;13.33;60.40
18504;BME280;9381;54.244;10.074;2023-04-25T11:44:34;100324.41;;;12.47;63.27
18504;BME280;9381;54.244;10.074;2023-04-25T11:49:35;100329.13;;;11.71;67.88
18504;BME280;9381;54.244;10.074;2023-04-25T11:54:36;100327.03;;;11.73;65.84
18504;BME280;9381;54.244;10.074;2023-04-25T11:59:37;100330.56;;;13.22;61.72
18504;BME280;9381;54.244;10.074;2023-04-25T12:04:40;100335.00;;;13.72;61.92
18504;BME280;9381;54.244;10.074;2023-04-25T12:09:41;100378.31;;;12.44;69.36
18504;BME280;9381;54.244;10.074;2023-04-25T12:14:46;100381.81;;;10.99;76.75
18504;BME280;9381;54.244;10.074;2023-04-25T12:19:48;100372.16;;;10.13;82.53
18504;BME280;9381;54.244;10.074;2023-04-25T12:24:48;100368.69;;;10.06;84.64
18504;BME280;9381;54.244;10.074;2023-04-25T12:29:53;100364.56;;;10.82;89.65
18504;BME280;9381;54.244;10.074;2023-04-25T12:34:53;100360.03;;;11.93;88.36
18504;BME280;9381;54.244;10.074;2023-04-25T12:39:54;100352.13;;;12.26;84.05
18504;BME280;9381;54.244;10.074;2023-04-25T12:44:55;100354.16;;;13.33;83.58
18504;BME280;9381;54.244;10.074;2023-04-25T12:49:55;100348.47;;;13.95;74.88
18504;BME280;9381;54.244;10.074;2023-04-25T12:54:55;100346.50;;;13.74;70.10
18504;BME280;9381;54.244;10.074;2023-04-25T12:59:56;100369.97;;;12.96;72.03
18504;BME280;9381;54.244;10.074;2023-04-25T13:04:56;100392.50;;;11.70;72.44
18504;BME280;9381;54.244;10.074;2023-04-25T13:09:57;100384.50;;;11.75;75.71
18504;BME280;9381;54.244;10.074;2023-04-25T13:14:57;100378.91;;;12.11;69.89
18504;BME280;9381;54.244;10.074;2023-04-25T13:19:58;100397.03;;;11.99;66.19
18504;BME280;9381;54.244;10.074;2023-04-25T13:24:58;100395.00;;;11.95;66.76
18504;BME280;9381;54.244;10.074;2023-04-25T13:29:59;100400.22;;;12.08;66.24
18504;BME280;9381;54.244;10.074;2023-04-25T13:34:59;100394.81;;;12.65;67.52
18504;BME280;9381;54.244;10.074;2023-04-25T13:40:00;100404.19;;;12.86;66.22
18504;BME280;9381;54.244;10.074;2023-04-25T13:45:02;100386.59;;;13.11;63.20
18504;BME280;9381;54.244;10.074;2023-04-25T13:50:04;100391.47;;;12.98;62.46
18504;BME280;9381;54.244;10.074;2023-04-25T13:55:08;100383.38;;;13.42;63.29
18504;BME280;9381;54.244;10.074;2023-04-25T14:00:09;100386.88;;;12.75;56.34
18504;BME280;9381;54.244;10.074;2023-04-25T14:05:10;100403.44;;;12.39;58.72
18504;BME280;9381;54.244;10.074;2023-04-25T14:10:10;100406.84;;;12.23;61.50
18504;BME280;9381;54.244;10.074;2023-04-25T14:15:11;100406.63;;;12.25;61.40
18504;BME280;9381;54.244;10.074;2023-04-25T14:20:11;100403.06;;;12.01;62.69
18504;BME280;9381;54.244;10.074;2023-04-25T14:25:11;100428.56;;;11.53;61.12
18504;BME280;9381;54.244;10.074;2023-04-25T14:30:12;100467.63;;;10.56;76.60
18504;BME280;9381;54.244;10.074;2023-04-25T14:35:12;100470.56;;;9.99;79.48
18504;BME280;9381;54.244;10.074;2023-04-25T14:40:13;100478.56;;;9.81;79.30
18504;BME280;9381;54.244;10.074;2023-04-25T14:45:15;100457.94;;;9.93;76.94
18504;BME280;9381;54.244;10.074;2023-04-25T14:50:17;100454.88;;;10.14;74.32
18504;BME280;9381;54.244;10.074;2023-04-25T14:55:17;100453.53;;;10.47;72.76
18504;BME280;9381;54.244;10.074;2023-04-25T15:00:18;100449.47;;;10.81;72.23
18504;BME280;9381;54.244;10.074;2023-04-25T15:05:20;100450.38;;;10.93;70.86
18504;BME280;9381;54.244;10.074;2023-04-25T15:10:22;100473.31;;;11.08;69.97
18504;BME280;9381;54.244;10.074;2023-04-25T15:15:22;100468.56;;;10.86;66.88
18504;BME280;9381;54.244;10.074;2023-04-25T15:20:23;100456.84;;;10.92;68.51
18504;BME280;9381;54.244;10.074;2023-04-25T15:25:24;100471.69;;;10.65;68.42
18504;BME280;9381;54.244;10.074;2023-04-25T15:30:25;100467.16;;;10.59;69.21
18504;BME280;9381;54.244;10.074;2023-04-25T15:35:25;100471.41;;;10.48;69.52
18504;BME280;9381;54.244;10.074;2023-04-25T15:40:26;100476.47;;;10.63;67.16
18504;BME280;9381;54.244;10.074;2023-04-25T15:45:26;100491.19;;;10.24;66.17
18504;BME280;9381;54.244;10.074;2023-04-25T15:50:27;100478.00;;;10.59;68.11
18504;BME280;9381;54.244;10.074;2023-04-25T15:55:27;100500.09;;;10.56;68.21
18504;BME280;9381;54.244;10.074;2023-04-25T16:00:28;100502.16;;;10.54;71.19
18504;BME280;9381;54.244;10.074;2023-04-25T16:05:28;100502.75;;;10.31;72.21
18504;BME280;9381;54.244;10.074;2023-04-25T16:10:29;100515.63;;;10.36;72.64
18504;BME280;9381;54.244;10.074;2023-04-25T16:15:29;100520.41;;;10.09;69.98
18504;BME280;9381;54.244;10.074;2023-04-25T16:20:31;100520.19;;;10.11;70.64
18504;BME280;9381;54.244;10.074;2023-04-25T16:25:31;100551.66;;;9.48;71.42
18504;BME280;9381;54.244;10.074;2023-04-25T16:30:32;100549.88;;;9.23;77.90
18504;BME280;9381;54.244;10.074;2023-04-25T16:35:32;100549.31;;;9.01;80.85
18504;BME280;9381;54.244;10.074;2023-04-25T16:40:33;100547.84;;;8.99;80.62
18504;BME280;9381;54.244;10.074;2023-04-25T16:45:33;100545.75;;;9.14;80.80
18504;BME280;9381;54.244;10.074;2023-04-25T16:50:34;100545.31;;;9.17;81.19
18504;BME280;9381;54.244;10.074;2023-04-25T16:55:34;100546.19;;;8.98;79.81
18504;BME280;9381;54.244;10.074;2023-04-25T17:00:35;100548.00;;;9.17;79.32
18504;BME280;9381;54.244;10.074;2023-04-25T17:05:36;100556.97;;;9.11;78.81
18504;BME280;9381;54.244;10.074;2023-04-25T17:10:36;100553.03;;;9.13;77.41
18504;BME280;9381;54.244;10.074;2023-04-25T17:15:36;100549.53;;;8.87;77.75
18504;BME280;9381;54.244;10.074;2023-04-25T17:20:37;100546.19;;;8.98;77.67
18504;BME280;9381;54.244;10.074;2023-04-25T17:25:37;100540.84;;;8.78;76.50
18504;BME280;9381;54.244;10.074;2023-04-25T17:30:38;100544.34;;;8.98;77.30
18504;BME280;9381;54.244;10.074;2023-04-25T17:35:38;100553.25;;;9.12;77.07
18504;BME280;9381;54.244;10.074;2023-04-25T17:40:39;100567.34;;;9.14;77.24
18504;BME280;9381;54.244;10.074;2023-04-25T17:45:39;100600.59;;;8.56;85.88
18504;BME280;9381;54.244;10.074;2023-04-25T17:50:40;100600.97;;;8.40;89.38
18504;BME280;9381;54.244;10.074;2023-04-25T17:55:40;100586.03;;;8.31;88.79
18504;BME280;9381;54.244;10.074;2023-04-25T18:00:42;100598.66;;;8.24;88.08
18504;BME280;9381;54.244;10.074;2023-04-25T18:05:43;100601.31;;;8.18;86.28
18504;BME280;9381;54.244;10.074;2023-04-25T18:10:44;100621.16;;;7.97;86.56
18504;BME280;9381;54.244;10.074;2023-04-25T18:15:44;100614.94;;;7.90;86.85
18504;BME280;9381;54.244;10.074;2023-04-25T18:20:45;100619.47;;;7.90;86.80
18504;BME280;9381;54.244;10.074;2023-04-25T18:25:46;100616.94;;;7.75;83.60
18504;BME280;9381;54.244;10.074;2023-04-25T18:30:46;100627.72;;;7.75;82.41
18504;BME280;9381;54.244;10.074;2023-04-25T18:35:49;100643.47;;;7.85;83.25
18504;BME280;9381;54.244;10.074;2023-04-25T18:40:49;100662.72;;;7.75;83.62
18504;BME280;9381;54.244;10.074;2023-04-25T18:45:50;100655.53;;;7.89;85.96
18504;BME280;9381;54.244;10.074;2023-04-25T18:50:50;100666.47;;;7.87;86.30
18504;BME280;9381;54.244;10.074;2023-04-25T18:55:50;100660.50;;;7.92;86.37
18504;BME280;9381;54.244;10.074;2023-04-25T19:00:51;100675.28;;;7.62;86.64
18504;BME280;9381;54.244;10.074;2023-04-25T19:05:51;100673.59;;;7.54;87.80
18504;BME280;9381;54.244;10.074;2023-04-25T19:10:52;100677.94;;;7.55;87.62
18504;BME280;9381;54.244;10.074;2023-04-25T19:15:53;100680.31;;;7.37;87.31
18504;BME280;9381;54.244;10.074;2023-04-25T19:20:53;100675.53;;;7.39;86.75
18504;BME280;9381;54.244;10.074;2023-04-25T19:25:54;100685.28;;;7.40;85.55
18504;BME280;9381;54.244;10.074;2023-04-25T19:30:54;100695.00;;;7.41;86.04
18504;BME280;9381;54.244;10.074;2023-04-25T19:35:55;100692.38;;;7.20;87.22
18504;BME280;9381;54.244;10.074;2023-04-25T19:40:55;100690.84;;;7.39;87.04
18504;BME280;9381;54.244;10.074;2023-04-25T19:45:56;100694.31;;;7.60;87.04
18504;BME280;9381;54.244;10.074;2023-04-25T19:50:56;100721.16;;;7.81;85.35
18504;BME280;9381;54.244;10.074;2023-04-25T19:55:57;100702.13;;;7.89;86.76
18504;BME280;9381;54.244;10.074;2023-04-25T20:00:58;100716.25;;;7.98;85.71
18504;BME280;9381;54.244;10.074;2023-04-25T20:05:58;100719.25;;;7.75;87.44
18504;BME280;9381;54.244;10.074;2023-04-25T20:10:58;100711.19;;;7.48;87.98
18504;BME280;9381;54.244;10.074;2023-04-25T20:15:59;100722.16;;;7.46;87.67
18504;BME280;9381;54.244;10.074;2023-04-25T20:20:59;100713.84;;;7.41;88.37
18504;BME280;9381;54.244;10.074;2023-04-25T20:26:01;100714.66;;;7.35;88.85
18504;BME280;9381;54.244;10.074;2023-04-25T20:31:01;100723.03;;;7.26;88.24
18504;BME280;9381;54.244;10.074;2023-04-25T20:36:01;100722.16;;;7.19;88.04
18504;BME280;9381;54.244;10.074;2023-04-25T20:41:02;100716.72;;;7.12;87.59
18504;BME280;9381;54.244;10.074;2023-04-25T20:46:02;100722.81;;;7.00;87.98
18504;BME280;9381;54.244;10.074;2023-04-25T20:51:03;100725.66;;;6.92;87.74
18504;BME280;9381;54.244;10.074;2023-04-25T20:56:06;100730.84;;;6.93;88.02
18504;BME280;9381;54.244;10.074;2023-04-25T21:01:06;100732.88;;;6.70;88.34
18504;BME280;9381;54.244;10.074;2023-04-25T21:06:08;100736.22;;;6.72;88.12
18504;BME280;9381;54.244;10.074;2023-04-25T21:11:08;100730.75;;;6.66;88.74
18504;BME280;9381;54.244;10.074;2023-04-25T21:16:09;100742.97;;;6.47;89.34
18504;BME280;9381;54.244;10.074;2023-04-25T21:21:09;100734.81;;;6.55;90.10
18504;BME280;9381;54.244;10.074;2023-04-25T21:26:09;100738.53;;;6.54;90.62
18504;BME280;9381;54.244;10.074;2023-04-25T21:31:10;100731.97;;;6.42;91.94
18504;BME280;9381;54.244;10.074;2023-04-25T21:36:10;100737.50;;;6.55;92.31
18504;BME280;9381;54.244;10.074;2023-04-25T21:41:11;100728.66;;;6.61;92.67
18504;BME280;9381;54.244;10.074;2023-04-25T21:46:11;100733.50;;;6.51;92.35
18504;BME280;9381;54.244;10.074;2023-04-25T21:51:11;100727.38;;;6.57;91.51
18504;BME280;9381;54.244;10.074;2023-04-25T21:56:11;100738.00;;;6.44;91.08
18504;BME280;9381;54.244;10.074;2023-04-25T22:01:12;100733.38;;;6.38;91.38
18504;BME280;9381;54.244;10.074;2023-04-25T22:06:14;100730.19;;;6.49;90.16
18504;BME280;9381;54.244;10.074;2023-04-25T22:11:15;100737.47;;;6.34;90.08
18504;BME280;9381;54.244;10.074;2023-04-25T22:16:16;100738.28;;;6.35;90.58
18504;BME280;9381;54.244;10.074;2023-04-25T22:21:16;100742.28;;;6.24;90.56
18504;BME280;9381;54.244;10.074;2023-04-25T22:26:17;100743.84;;;6.33;90.77
18504;BME280;9381;54.244;10.074;2023-04-25T22:31:18;100754.53;;;6.48;91.23
18504;BME280;9381;54.244;10.074;2023-04-25T22:36:18;100749.34;;;6.25;91.61
18504;BME280;9381;54.244;10.074;2023-04-25T22:41:19;100751.75;;;6.20;92.28
18504;BME280;9381;54.244;10.074;2023-04-25T22:46:20;100753.03;;;6.24;92.13
18504;BME280;9381;54.244;10.074;2023-04-25T22:51:20;100755.06;;;6.22;92.23
18504;BME280;9381;54.244;10.074;2023-04-25T22:56:21;100771.25;;;6.29;92.51
18504;BME280;9381;54.244;10.074;2023-04-25T23:01:21;100774.69;;;6.37;92.38
18504;BME280;9381;54.244;10.074;2023-04-25T23:06:21;100769.72;;;6.34;93.12
18504;BME280;9381;54.244;10.074;2023-04-25T23:11:21;100773.78;;;6.30;93.96
18504;BME280;9381;54.244;10.074;2023-04-25T23:16:22;100788.91;;;6.52;94.49
18504;BME280;9381;54.244;10.074;2023-04-25T23:21:23;100780.91;;;6.73;93.36
18504;BME280;9381;54.244;10.074;2023-04-25T23:26:23;100773.47;;;6.75;91.21
18504;BME280;9381;54.244;10.074;2023-04-25T23:31:23;100765.28;;;6.83;88.79
18504;BME280;9381;54.244;10.074;2023-04-25T23:36:24;100772.84;;;6.94;86.61
18504;BME280;9381;54.244;10.074;2023-04-25T23:41:24;100781.81;;;6.80;84.82
18504;BME280;9381;54.244;10.074;2023-04-25T23:46:24;100775.97;;;6.77;85.30
18504;BME280;9381;54.244;10.074;2023-04-25T23:51:27;100793.94;;;6.55;86.44
18504;BME280;9381;54.244;10.074;2023-04-25T23:56:28;100789.81;;;6.59;87.93
